Погода Мишенинона 2 недели

Смоленская область, Россия

24 мая-06 июня
  • 24мая
    Сегодня
    +6°
    +21°
    Ясно и безоблачно
    ВремяПогодаТемператураВлажностьДавлениеВетер, м/сВероятность осадков
    00:00Ясно и безоблачно+12°C52 %752 мм3.5 м/с2 %
    03:00Ясно и безоблачно+9°C62 %752 мм2.8 м/с2 %
    06:00Ясно и безоблачно+9°C63 %753 мм2.9 м/с2 %
    09:00Практически безоблачно+15°C42 %754 мм3.7 м/с2 %
    12:00Ясно и безоблачно+18°C30 %754 мм5.1 м/с2 %
    15:00Ясно и безоблачно+20°C27 %753 мм4.9 м/с2 %
    18:00Ясно и безоблачно+20°C29 %753 мм3.9 м/с2 %
    21:00Ясно и безоблачно+14°C45 %753 мм2.7 м/с2 %
  • 25мая
    Суббота
    +9°
    +23°
    Практически безоблачно
    ВремяПогодаТемператураВлажностьДавлениеВетер, м/сВероятность осадков
    00:00Ясно и безоблачно+10°C59 %753 мм2.5 м/с2 %
    03:00Ясно и безоблачно+7°C68 %753 мм2.3 м/с2 %
    06:00Ясно и безоблачно+8°C69 %752 мм2.6 м/с2 %
    09:00Ясно и безоблачно+16°C53 %753 мм1.8 м/с2 %
    12:00Ясно и безоблачно+21°C38 %752 мм2.2 м/с2 %
    15:00Практически безоблачно+23°C34 %751 мм2.7 м/с2 %
    18:00Ясно и безоблачно+23°C35 %750 мм2.1 м/с2 %
    21:00Ясно и безоблачно+16°C61 %749 мм2.4 м/с2 %
  • 26мая
    Воскресенье
    +12°
    +26°
    Облачно с прояснениями
    ВремяПогодаТемператураВлажностьДавлениеВетер, м/сВероятность осадков
    00:00Облачно с прояснениями+12°C65 %749 мм2.5 м/с2 %
    03:00Ясно и безоблачно+10°C79 %749 мм2.0 м/с2 %
    06:00Ясно и безоблачно+11°C80 %749 мм2.6 м/с2 %
    09:00Ясно и безоблачно+19°C60 %749 мм1.3 м/с2 %
    12:00Ясно и безоблачно+23°C38 %749 мм2.4 м/с2 %
    15:00Облачно с прояснениями+25°C34 %748 мм2.1 м/с6 %
    18:00Небольшая облачность+25°C36 %748 мм2.7 м/с16 %
    21:00Ясно и безоблачно+19°C64 %748 мм2.4 м/с8 %
  • 27мая
    Понедельник
    +9°
    +23°
    Ясно и безоблачно
    ВремяПогодаТемператураВлажностьДавлениеВетер, м/сВероятность осадков
    00:00Ясно и безоблачно+15°C82 %749 мм2.9 м/с5 %
    03:00Ясно и безоблачно+13°C93 %749 мм3.0 м/с2 %
    06:00Ясно и безоблачно+14°C88 %750 мм3.1 м/с2 %
    09:00Практически безоблачно+19°C70 %751 мм4.3 м/с2 %
    12:00Ясно и безоблачно+22°C46 %751 мм4.2 м/с9 %
    15:00Ясно и безоблачно+23°C38 %751 мм4.2 м/с15 %
    18:00Ясно и безоблачно+22°C40 %750 мм3.2 м/с16 %
    21:00Ясно и безоблачно+18°C48 %750 мм3.2 м/с3 %
  • 28мая
    Вторник
    +10°
    +24°
    Ясно и безоблачно
    ВремяПогодаТемператураВлажностьДавлениеВетер, м/сВероятность осадков
    00:00Ясно и безоблачно+14°C55 %750 мм2.7 м/с2 %
    03:00Ясно и безоблачно+11°C59 %751 мм2.3 м/с2 %
    06:00Ясно и безоблачно+12°C69 %751 мм2.3 м/с2 %
    09:00Ясно и безоблачно+19°C46 %751 мм2.7 м/с2 %
    12:00Ясно и безоблачно+22°C33 %751 мм3.2 м/с3 %
    15:00Ясно и безоблачно+24°C31 %750 мм2.4 м/с3 %
    18:00Ясно и безоблачно+23°C33 %749 мм2.3 м/с6 %
    21:00Ясно и безоблачно+19°C50 %749 мм2.3 м/с5 %
Мы используем cookies
Соглашаюсь